Share

Ansley, NE

KNEANSLE2 Elev 2320 ft | 41.29 °N, 99.38 °W | Change Station

Current weather conditions updated 24 minutes ago

Clear
Clear
53.8 °F
Feels Like 53.8 °F
N
3.0
Wind Variable Wind from North
Gusts 10.0 mph
Sunrise 6:48 AM
Sunset 8:24 PM
Moon Waning Gibbous

Today is forecast to be Cooler than yesterday.

Pressure 29.99 in
Visibility 10.0 miles
Clouds Clear
Dew Point 45 °F
Humidity 71%
Rainfall 0.20 in
Snow Depth Not available.
UV 0 out of 16
Pollen 7.80 out of 12
Air Quality Not available.
Flu Activity Sporadic
METAR KBBW 210853Z AUTO 01014G19KT 10SM CLR 11/04 A3002 RMK AO2 SLP155 60007 T01060039 51010 $

More Conditions Fewer Conditions

Pressure 29.99 in
Visibility 10.0 miles
Clouds Clear
Dew Point 45 °F
Humidity 71%
Rainfall 0.20 in
Snow Depth Not available.
UV 0 out of 16
Pollen 7.80 out of 12
Air Quality Not available.
Flu Activity Sporadic
METAR KBBW 210853Z AUTO 01014G19KT 10SM CLR 11/04 A3002 RMK AO2 SLP155 60007 T01060039 51010 $

More Conditions Fewer Conditions

10-Day Weather Forecast

Almanac

Astronomy

Apr. 21, 2014 Rise Set
Actual Time 6:48 AM CDT 8:24 PM CDT
Civil Twilight 6:19 AM CDT 8:53 PM CDT
Nautical Twilight 5:44 AM CDT 9:28 PM CDT
Astronomical Twilight 5:06 AM CDT 10:06 PM CDT
Moon 1:56 AM CDT 12:16 PM CDT
Length of Visible Light 14h 33m
Length of Day
13h 35m
Tomorrow will be 2m 33s longer.
Waning Gibbous, 60% of the Moon is Illuminated
Today
Waning Gibbous
Apr 22
Last Quarter
Apr 29
New
May 6
First Quarter
May 14
Full

Today's Extremes

State Highs State Lows

Community

  • Snowy Robin
    Snowy Robin
  • Sun Pillar and Geese
    Sun Pillar and Geese
  • Showers on the Way
    Showers on the Way
  • Easter Morning Fog
    Easter Morning Fog
  • Easter Dance
    Easter Dance

WunderPhotos

Upload Photos

1,703,579 photos uploaded!

WunderBlogs® & News

Nearby

Snow Depth

Station Depth Elevation
No new snow has been reported.

Coastal Water Temperatures

Place Temperature
No Stations Reporting

Earthquake Activity

City Distance Mag. Time & Date
No recent earthquake activity has been reported nearby.
Minimum magnitude displayed is 2.5.

Nearby Weather Stations

Station Location Temp. Dew Point Humidity Wind Precip. Elev Updated Type
Ansley, NE 53.8 °F 45 °F 71% North  at  3.0 mph 0.00 in / hr 2320 ft 4:30 AM CDT Normal
South of Town, Broken Bow, NE 51.7 °F 37 °F 57% NW  at  3.0 mph 0.00 in / hr 2523 ft 4:54 AM CDT Normal
Central, Loup City, NE 55.2 °F 50 °F 83% West  at  5.3 mph - / hr 2090 ft 4:50 AM CDT Normal
Sargent, Sargent, NE 53.4 °F 38 °F 57% NNW  at  4.0 mph 0.00 in / hr 2314 ft 4:46 AM CDT Normal

Show More Stations Show Fewer Stations

What do you think?

We're not finished. Please let us know what you like, what you don't like, and what you are still missing.